createdAt,value
2019-04-10T00:02:16.037Z,95540.80
2019-04-10T00:04:43.631Z,95537.17
2019-04-10T00:07:15.046Z,95529.63
2019-04-10T00:09:41.324Z,95530.77
2019-04-10T00:12:09.508Z,95538.34
2019-04-10T00:14:36.928Z,95531.59
2019-04-10T00:17:04.844Z,95529.77
2019-04-10T00:19:32.902Z,95536.03
2019-04-10T00:22:02.706Z,95530.77
2019-04-10T00:24:30.417Z,95533.22
2019-04-10T00:26:58.518Z,95531.41
2019-04-10T00:29:26.243Z,95535.84
2019-04-10T00:31:54.230Z,95532.86
2019-04-10T00:34:23.097Z,95534.36
2019-04-10T00:36:51.375Z,95536.31
2019-04-10T00:39:20.127Z,95532.68
2019-04-10T00:41:48.367Z,95534.00
2019-04-10T00:44:16.006Z,95534.16
2019-04-10T00:46:43.509Z,95541.87
2019-04-10T00:49:10.918Z,95544.33
2019-04-10T00:51:39.499Z,95539.70
2019-04-10T00:54:07.808Z,95540.19
2019-04-10T00:56:35.366Z,95537.37
2019-04-10T00:59:03.823Z,95540.49
2019-04-10T01:01:31.990Z,95539.80
2019-04-10T01:04:00.284Z,95539.11
2019-04-10T01:06:28.205Z,95548.79
2019-04-10T01:08:57.185Z,95538.38
2019-04-10T01:11:25.239Z,95539.47
2019-04-10T01:13:53.738Z,95536.94
2019-04-10T01:16:22.973Z,95539.53
2019-04-10T01:18:53.654Z,95538.64
2019-04-10T01:21:22.071Z,95529.94
2019-04-10T01:23:49.667Z,95533.34
2019-04-10T01:26:17.823Z,95530.91
2019-04-10T01:28:45.505Z,95531.77
2019-04-10T01:31:13.601Z,95529.30
2019-04-10T01:33:41.531Z,95526.16
2019-04-10T01:36:10.939Z,95529.44
2019-04-10T01:38:39.828Z,95529.98
2019-04-10T01:41:07.796Z,95533.42
2019-04-10T01:43:35.300Z,95524.05
2019-04-10T01:46:04.129Z,95523.37
2019-04-10T01:48:32.927Z,95520.53
2019-04-10T01:51:01.135Z,95515.59
2019-04-10T01:53:28.697Z,95512.69
2019-04-10T01:55:57.519Z,95514.35
2019-04-10T01:58:25.350Z,95509.25
2019-04-10T02:00:59.630Z,95511.42
2019-04-10T02:03:27.733Z,95506.53
2019-04-10T02:05:55.389Z,95514.55
2019-04-10T02:08:23.629Z,95517.09
2019-04-10T02:10:52.260Z,95513.17
2019-04-10T02:13:19.888Z,95512.16
2019-04-10T02:15:48.283Z,95506.58
2019-04-10T02:18:17.234Z,95511.42
2019-04-10T02:20:45.202Z,95505.16
2019-04-10T02:23:12.782Z,95511.08
2019-04-10T02:25:41.097Z,95511.05
2019-04-10T02:28:09.127Z,95510.89
2019-04-10T02:30:39.033Z,95506.92
2019-04-10T02:33:08.180Z,95503.31
2019-04-10T02:35:37.986Z,95507.34
2019-04-10T02:38:23.063Z,95506.00
2019-04-10T02:40:35.035Z,95505.52
2019-04-10T02:43:03.399Z,95504.99
2019-04-10T02:45:32.434Z,95503.05
2019-04-10T02:48:01.625Z,95506.36
2019-04-10T02:50:49.299Z,95501.98
2019-04-10T02:53:39.298Z,95507.39
2019-04-10T02:56:16.050Z,95512.02
2019-04-10T02:59:00.217Z,95513.44
2019-04-10T03:01:27.845Z,95512.23
2019-04-10T03:03:56.808Z,95508.23
2019-04-10T03:06:24.620Z,95507.02
2019-04-10T03:09:08.605Z,95504.36
2019-04-10T03:11:24.285Z,95511.90
2019-04-10T03:13:53.539Z,95502.94
2019-04-10T03:16:21.606Z,95513.49
2019-04-10T03:18:50.266Z,95508.68
2019-04-10T03:21:18.617Z,95510.00
2019-04-10T03:23:46.255Z,95503.89
2019-04-10T03:26:13.928Z,95502.20
2019-04-10T03:28:43.010Z,95509.33
2019-04-10T03:31:12.501Z,95509.46
2019-04-10T03:33:54.624Z,95507.58
2019-04-10T03:36:21.386Z,95512.48
2019-04-10T03:38:57.768Z,95520.29
2019-04-10T03:41:19.763Z,95517.42
2019-04-10T03:43:47.323Z,95517.42
2019-04-10T03:46:15.417Z,95517.00
2019-04-10T03:48:43.256Z,95521.06
2019-04-10T03:51:12.327Z,95521.19
2019-04-10T03:53:40.364Z,95523.29
2019-04-10T03:56:09.534Z,95526.31
2019-04-10T03:58:37.705Z,95526.31
2019-04-10T04:01:05.336Z,95530.86
2019-04-10T04:03:32.991Z,95530.05
2019-04-10T04:06:01.620Z,95528.15
2019-04-10T04:08:29.861Z,95528.20
2019-04-10T04:10:59.385Z,95530.28
2019-04-10T04:13:27.889Z,95532.74
2019-04-10T04:15:55.508Z,95526.19
2019-04-10T04:18:24.915Z,95525.58
2019-04-10T04:20:52.981Z,95530.25
2019-04-10T04:23:21.502Z,95526.31
2019-04-10T04:25:49.146Z,95530.30
2019-04-10T04:28:18.829Z,95534.02
2019-04-10T04:30:46.561Z,95536.44
2019-04-10T04:33:15.456Z,95540.31
2019-04-10T04:35:47.400Z,95539.01
2019-04-10T04:38:16.377Z,95538.62
2019-04-10T04:40:44.605Z,95545.89
2019-04-10T04:43:12.523Z,95546.25
2019-04-10T04:45:40.103Z,95543.14
2019-04-10T04:48:07.811Z,95541.39
2019-04-10T04:50:35.748Z,95545.73
2019-04-10T04:53:04.471Z,95546.55
2019-04-10T04:55:33.147Z,95549.66
2019-04-10T04:58:02.254Z,95548.48
2019-04-10T05:00:29.905Z,95554.91
2019-04-10T05:02:57.897Z,95554.75
2019-04-10T05:05:27.087Z,95547.63
2019-04-10T05:08:00.065Z,95554.02
2019-04-10T05:10:25.461Z,95560.28
2019-04-10T05:12:54.877Z,95559.51
2019-04-10T05:15:22.430Z,95556.80
2019-04-10T05:17:51.439Z,95560.29
2019-04-10T05:20:21.565Z,95555.49
2019-04-10T05:22:51.967Z,95558.03
2019-04-10T05:25:20.959Z,95563.02
2019-04-10T05:27:49.001Z,95562.81
2019-04-10T05:30:17.099Z,95566.00
2019-04-10T05:32:45.495Z,95565.09
2019-04-10T05:35:13.256Z,95560.20
2019-04-10T05:37:40.818Z,95558.97
2019-04-10T05:40:09.790Z,95564.87
2019-04-10T05:42:37.594Z,95565.76
2019-04-10T05:45:07.045Z,95564.87
2019-04-10T05:47:36.536Z,95570.34
2019-04-10T05:50:06.137Z,95573.83
2019-04-10T05:52:34.042Z,95567.84
2019-04-10T05:55:02.348Z,95562.42
2019-04-10T05:57:30.810Z,95560.66
2019-04-10T05:59:58.465Z,95561.83
2019-04-10T06:02:27.125Z,95564.52
2019-04-10T06:04:55.956Z,95570.55
2019-04-10T06:07:31.617Z,95566.64
2019-04-10T06:10:04.340Z,95566.84
2019-04-10T06:12:29.062Z,95574.70
2019-04-10T06:14:57.046Z,95574.09
2019-04-10T06:17:24.742Z,95575.23
2019-04-10T06:19:53.073Z,95574.25
2019-04-10T06:22:21.236Z,95575.27
2019-04-10T06:24:49.822Z,95583.41
2019-04-10T06:27:18.546Z,95585.83
2019-04-10T06:29:47.576Z,95576.38
2019-04-10T06:32:16.970Z,95583.72
2019-04-10T06:34:46.084Z,95575.64
2019-04-10T06:37:14.168Z,95578.09
2019-04-10T06:39:44.503Z,95577.61
2019-04-10T06:42:12.667Z,95583.27
2019-04-10T06:44:41.816Z,95582.38
2019-04-10T06:47:09.823Z,95583.56
2019-04-10T06:49:38.614Z,95581.48
2019-04-10T06:52:06.619Z,95581.66
2019-04-10T06:54:34.092Z,95577.34
2019-04-10T06:57:02.764Z,95577.66
2019-04-10T06:59:30.508Z,95578.52
2019-04-10T07:02:13.141Z,95578.22
2019-04-10T07:04:28.462Z,95576.73
2019-04-10T07:07:03.044Z,95573.30
2019-04-10T07:09:27.104Z,95576.75
2019-04-10T07:11:59.430Z,95581.72
2019-04-10T07:14:26.679Z,95583.22
2019-04-10T07:16:54.919Z,95577.40
2019-04-10T07:19:24.136Z,95583.64
2019-04-10T07:21:52.774Z,95581.86
2019-04-10T07:24:20.887Z,95594.22
2019-04-10T07:26:50.905Z,95594.41
2019-04-10T07:29:21.111Z,95590.63
2019-04-10T07:31:48.781Z,95593.91
2019-04-10T07:34:20.069Z,95598.35
2019-04-10T07:36:46.873Z,95601.31
2019-04-10T07:39:15.734Z,95600.48
2019-04-10T07:41:43.564Z,95605.11
2019-04-10T07:44:12.067Z,95603.30
2019-04-10T07:46:42.354Z,95601.00
2019-04-10T07:49:10.586Z,95606.59
2019-04-10T07:51:38.891Z,95609.89
2019-04-10T07:54:08.187Z,95604.94
2019-04-10T07:56:37.289Z,95607.90
2019-04-10T07:59:05.142Z,95611.53
2019-04-10T08:01:33.438Z,95607.90
2019-04-10T08:04:01.861Z,95608.40
2019-04-10T08:06:29.644Z,95614.48
2019-04-10T08:08:57.092Z,95613.67
2019-04-10T08:11:24.728Z,95613.48
2019-04-10T08:13:55.065Z,95611.98
2019-04-10T08:16:25.252Z,95618.09
2019-04-10T08:18:54.163Z,95616.40
2019-04-10T08:21:22.228Z,95621.70
2019-04-10T08:23:51.421Z,95622.20
2019-04-10T08:26:21.267Z,95619.61
2019-04-10T08:28:49.699Z,95623.38
2019-04-10T08:31:17.582Z,95622.22
2019-04-10T08:33:46.156Z,95622.77
2019-04-10T08:36:13.740Z,95619.39
2019-04-10T08:38:42.197Z,95620.56
2019-04-10T08:41:10.722Z,95619.56
2019-04-10T08:43:39.660Z,95629.45
2019-04-10T08:46:08.630Z,95621.47
2019-04-10T08:48:37.656Z,95622.05
2019-04-10T08:51:06.472Z,95623.83
2019-04-10T08:53:34.269Z,95620.01
2019-04-10T08:56:02.896Z,95629.31
2019-04-10T08:58:30.800Z,95627.48
2019-04-10T09:00:58.679Z,95626.80
2019-04-10T09:03:27.240Z,95621.61
2019-04-10T09:05:55.278Z,95619.17
2019-04-10T09:08:22.948Z,95620.13
2019-04-10T09:10:50.884Z,95614.05
2019-04-10T09:13:18.478Z,95614.78
2019-04-10T09:15:46.097Z,95619.74
2019-04-10T09:18:14.715Z,95609.69
2019-04-10T09:20:42.773Z,95613.66
2019-04-10T09:23:24.225Z,95615.89
2019-04-10T09:25:41.880Z,95616.25
2019-04-10T09:28:10.555Z,95613.16
2019-04-10T09:30:38.208Z,95618.11
2019-04-10T09:33:18.727Z,95620.56
2019-04-10T09:35:38.351Z,95618.27
2019-04-10T09:38:06.606Z,95617.80
2019-04-10T09:40:34.421Z,95612.59
2019-04-10T09:43:02.995Z,95619.48
2019-04-10T09:45:30.965Z,95618.70
2019-04-10T09:47:58.691Z,95609.86
2019-04-10T09:50:27.579Z,95625.23
2019-04-10T09:52:55.224Z,95620.11
2019-04-10T09:55:24.292Z,95621.13
2019-04-10T09:57:52.502Z,95624.30
2019-04-10T10:00:21.357Z,95619.63
2019-04-10T10:02:48.828Z,95624.06
2019-04-10T10:05:20.191Z,95625.27
2019-04-10T10:07:48.684Z,95620.27
2019-04-10T10:10:17.216Z,95615.47
2019-04-10T10:12:45.247Z,95621.19
2019-04-10T10:15:13.482Z,95622.41
2019-04-10T10:17:41.346Z,95624.81
2019-04-10T10:20:11.628Z,95620.91
2019-04-10T10:22:39.619Z,95626.55
2019-04-10T10:25:43.646Z,95626.03
2019-04-10T10:28:11.857Z,95628.13
2019-04-10T10:30:39.768Z,95625.72
2019-04-10T10:33:07.791Z,95624.61
2019-04-10T10:35:36.264Z,95630.66
2019-04-10T10:38:05.306Z,95629.58
2019-04-10T10:40:33.987Z,95618.51
2019-04-10T10:43:02.889Z,95630.66
2019-04-10T10:45:31.140Z,95636.45
2019-04-10T10:47:58.855Z,95640.00
2019-04-10T10:50:26.621Z,95643.98
2019-04-10T10:52:53.987Z,95638.39
2019-04-10T10:55:21.823Z,95641.83
2019-04-10T10:57:49.755Z,95639.09
2019-04-10T11:00:18.882Z,95650.88
2019-04-10T11:02:46.621Z,95640.34
2019-04-10T11:05:14.900Z,95639.56
2019-04-10T11:07:43.016Z,95639.63
2019-04-10T11:10:12.558Z,95645.34
2019-04-10T11:12:42.260Z,95640.13
2019-04-10T11:15:10.476Z,95641.27
2019-04-10T11:17:38.748Z,95634.78
2019-04-10T11:20:10.051Z,95638.95
2019-04-10T11:22:39.613Z,95636.04
2019-04-10T11:25:08.057Z,95634.68
2019-04-10T11:27:36.811Z,95635.95
2019-04-10T11:30:06.039Z,95636.49
2019-04-10T11:32:34.144Z,95642.27
2019-04-10T11:35:03.270Z,95638.25
2019-04-10T11:37:40.010Z,95642.16
2019-04-10T11:40:04.003Z,95639.26
2019-04-10T11:42:32.219Z,95650.32
2019-04-10T11:45:01.816Z,95645.20
2019-04-10T11:47:31.733Z,95641.59
2019-04-10T11:50:01.603Z,95642.94
2019-04-10T11:52:36.277Z,95649.06
2019-04-10T11:55:08.789Z,95646.09
2019-04-10T11:57:31.713Z,95648.40
2019-04-10T12:00:00.747Z,95652.20
2019-04-10T12:02:28.283Z,95655.52
2019-04-10T12:07:58.610Z,95651.53
2019-04-10T12:12:26.115Z,95652.81
2019-04-10T12:14:54.200Z,95659.09
2019-04-10T12:17:22.134Z,95660.47
2019-04-10T12:19:49.652Z,95666.59
2019-04-10T12:22:19.141Z,95654.08
2019-04-10T12:24:49.655Z,95659.66
2019-04-10T12:27:16.731Z,95661.80
2019-04-10T12:29:44.786Z,95656.30
2019-04-10T12:32:12.492Z,95661.64
2019-04-10T12:34:40.339Z,95659.45
2019-04-10T12:37:08.920Z,95660.31
2019-04-10T12:39:37.355Z,95661.77
2019-04-10T12:42:05.876Z,95653.95
2019-04-10T12:44:33.801Z,95658.77
2019-04-10T12:47:01.719Z,95661.53
2019-04-10T12:49:29.754Z,95658.02
2019-04-10T12:51:58.401Z,95658.41
2019-04-10T12:54:27.926Z,95657.98
2019-04-10T12:56:56.714Z,95659.37
2019-04-10T12:59:25.935Z,95656.72
2019-04-10T13:01:54.106Z,95657.52
2019-04-10T13:04:23.190Z,95664.99
2019-04-10T13:06:52.595Z,95661.23
2019-04-10T13:09:20.408Z,95658.23
2019-04-10T13:11:50.972Z,95659.78
2019-04-10T13:14:18.806Z,95662.75
2019-04-10T13:16:47.929Z,95663.20
2019-04-10T13:19:16.597Z,95655.58
2019-04-10T13:21:44.428Z,95657.37
2019-04-10T13:24:13.239Z,95653.47
2019-04-10T13:26:42.019Z,95656.98
2019-04-10T13:29:11.971Z,95652.86
2019-04-10T13:31:39.693Z,95650.19
2019-04-10T13:34:09.046Z,95652.90
2019-04-10T13:36:37.711Z,95652.90
2019-04-10T13:39:06.691Z,95654.18
2019-04-10T13:41:34.540Z,95652.73
2019-04-10T13:44:02.462Z,95657.36
2019-04-10T13:46:31.093Z,95649.63
2019-04-10T13:49:00.013Z,95651.05
2019-04-10T13:51:27.761Z,95653.09
2019-04-10T13:53:56.490Z,95653.98
2019-04-10T13:56:25.348Z,95658.89
2019-04-10T13:58:53.039Z,95653.28
2019-04-10T14:01:25.573Z,95654.31
2019-04-10T14:03:54.409Z,95654.47
2019-04-10T14:06:22.250Z,95659.61
2019-04-10T14:09:07.790Z,95660.36
2019-04-10T14:11:19.871Z,95661.92
2019-04-10T14:13:48.349Z,95662.60
2019-04-10T14:16:16.953Z,95666.89
2019-04-10T14:18:45.293Z,95662.31
2019-04-10T14:21:15.753Z,95665.36
2019-04-10T14:23:43.496Z,95663.48
2019-04-10T14:26:42.189Z,95669.34
2019-04-10T14:29:07.224Z,95665.92
2019-04-10T14:31:38.499Z,95665.72
2019-04-10T14:34:06.702Z,95663.02
2019-04-10T14:36:34.599Z,95664.41
2019-04-10T14:39:12.140Z,95664.55
2019-04-10T14:41:32.458Z,95669.07
2019-04-10T14:43:59.902Z,95668.67
2019-04-10T14:46:28.391Z,95678.02
2019-04-10T14:48:56.566Z,95672.37
2019-04-10T14:51:24.232Z,95675.66
2019-04-10T14:53:52.240Z,95676.47
2019-04-10T14:56:19.935Z,95671.45
2019-04-10T14:58:47.786Z,95672.89
2019-04-10T15:01:15.671Z,95678.84
2019-04-10T15:03:43.259Z,95673.94
2019-04-10T15:06:11.310Z,95676.90
2019-04-10T15:08:39.700Z,95679.94
2019-04-10T15:11:07.238Z,95678.27
2019-04-10T15:13:36.139Z,95679.63
2019-04-10T15:16:05.011Z,95679.16
2019-04-10T15:18:33.159Z,95680.13
2019-04-10T15:21:02.782Z,95682.00
2019-04-10T15:23:31.726Z,95680.25
2019-04-10T15:26:01.769Z,95681.11
2019-04-10T15:28:29.739Z,95688.45
2019-04-10T15:30:59.931Z,95686.23
2019-04-10T15:33:28.892Z,95688.80
2019-04-10T15:35:57.616Z,95689.31
2019-04-10T15:38:27.004Z,95689.05
2019-04-10T15:40:55.039Z,95689.08
2019-04-10T15:43:23.959Z,95695.11
2019-04-10T15:45:54.902Z,95697.59
2019-04-10T15:48:22.977Z,95694.55
2019-04-10T15:50:51.919Z,95695.59
2019-04-10T15:53:20.262Z,95695.09
2019-04-10T15:55:48.088Z,95702.05
2019-04-10T15:58:17.314Z,95694.30
2019-04-10T16:00:45.520Z,95696.84
2019-04-10T16:03:13.735Z,95697.41
2019-04-10T16:05:41.815Z,95705.20
2019-04-10T16:08:12.123Z,95704.91
2019-04-10T16:11:14.746Z,95704.08
2019-04-10T16:13:46.414Z,95705.42
2019-04-10T16:16:40.319Z,95708.91
2019-04-10T16:19:34.822Z,95703.66
2019-04-10T16:22:04.092Z,95706.11
2019-04-10T16:24:31.711Z,95708.45
2019-04-10T16:26:59.986Z,95705.97
2019-04-10T16:29:28.897Z,95709.13
2019-04-10T16:31:56.929Z,95710.63
2019-04-10T16:34:25.434Z,95715.58
2019-04-10T16:36:54.204Z,95713.59
2019-04-10T16:39:22.287Z,95718.37
2019-04-10T16:41:50.346Z,95722.05
2019-04-10T16:44:19.182Z,95719.91
2019-04-10T16:46:49.444Z,95716.92
2019-04-10T16:49:17.008Z,95722.55
2019-04-10T16:51:45.020Z,95727.84
2019-04-10T16:54:13.703Z,95735.09
2019-04-10T16:56:42.226Z,95732.01
2019-04-10T16:59:10.487Z,95738.92
2019-04-10T17:01:39.155Z,95733.47
2019-04-10T17:04:07.078Z,95738.70
2019-04-10T17:06:36.532Z,95741.84
2019-04-10T17:09:05.905Z,95744.30
2019-04-10T17:11:34.571Z,95741.30
2019-04-10T17:14:02.786Z,95753.64
2019-04-10T17:16:32.190Z,95745.42
2019-04-10T17:19:01.445Z,95756.47
2019-04-10T17:21:31.079Z,95755.66
2019-04-10T17:24:00.710Z,95755.48
2019-04-10T17:26:28.326Z,95754.34
2019-04-10T17:28:56.702Z,95752.34
2019-04-10T17:31:24.705Z,95757.15
2019-04-10T17:33:52.556Z,95759.94
2019-04-10T17:36:21.484Z,95755.83
2019-04-10T17:38:49.177Z,95754.51
2019-04-10T17:41:17.664Z,95759.60
2019-04-10T17:43:45.840Z,95755.97
2019-04-10T17:46:13.733Z,95764.37
2019-04-10T17:48:42.078Z,95767.09
2019-04-10T17:51:12.465Z,95764.09
2019-04-10T17:53:41.996Z,95773.48
2019-04-10T17:56:09.701Z,95775.81
2019-04-10T17:58:37.927Z,95776.73
2019-04-10T18:01:10.164Z,95779.66
2019-04-10T18:03:46.144Z,95784.23
2019-04-10T18:06:08.986Z,95787.79
2019-04-10T18:08:36.845Z,95791.92
2019-04-10T18:11:05.887Z,95794.42
2019-04-10T18:13:34.211Z,95796.38
2019-04-10T18:16:04.274Z,95806.12
2019-04-10T18:18:31.974Z,95814.86
2019-04-10T18:21:00.140Z,95826.59
2019-04-10T18:23:28.699Z,95830.02
2019-04-10T18:25:58.216Z,95844.83
2019-04-10T18:28:27.593Z,95850.61
2019-04-10T18:30:56.546Z,95846.95
2019-04-10T18:33:24.760Z,95851.21
2019-04-10T18:35:53.225Z,95858.77
2019-04-10T18:38:21.626Z,95860.25
2019-04-10T18:40:55.982Z,95864.64
2019-04-10T18:43:20.190Z,95869.05
2019-04-10T18:45:58.719Z,95871.27
2019-04-10T18:48:18.722Z,95877.25
2019-04-10T18:50:47.526Z,95884.39
2019-04-10T18:53:17.117Z,95882.72
2019-04-10T18:55:45.231Z,95878.61
2019-04-10T18:58:16.607Z,95886.50
2019-04-10T19:01:04.912Z,95887.78
2019-04-10T19:03:48.889Z,95894.81
2019-04-10T19:06:24.635Z,95898.78
2019-04-10T19:09:04.501Z,95897.03
2019-04-10T19:11:26.325Z,95899.45
2019-04-10T19:13:53.136Z,95899.91
2019-04-10T19:16:21.584Z,95905.62
2019-04-10T19:18:50.061Z,95904.06
2019-04-10T19:21:17.979Z,95907.30
2019-04-10T19:23:46.110Z,95907.17
2019-04-10T19:26:19.194Z,95913.55
2019-04-10T19:28:48.805Z,95909.44
2019-04-10T19:31:20.040Z,95906.77
2019-04-10T19:33:49.031Z,95911.25
2019-04-10T19:36:19.459Z,95915.19
2019-04-10T19:38:47.873Z,95916.09
2019-04-10T19:41:25.039Z,95910.96
2019-04-10T19:43:46.397Z,95917.69
2019-04-10T19:46:17.494Z,95919.33
2019-04-10T19:48:49.872Z,95922.45
2019-04-10T19:51:16.970Z,95921.80
2019-04-10T19:53:45.806Z,95920.11
2019-04-10T19:56:14.089Z,95920.89
2019-04-10T19:58:42.458Z,95927.95
2019-04-10T20:01:10.867Z,95920.11
2019-04-10T20:03:39.638Z,95916.50
2019-04-10T20:06:07.910Z,95920.80
2019-04-10T20:08:35.700Z,95925.57
2019-04-10T20:11:03.657Z,95922.73
2019-04-10T20:13:32.577Z,95922.45
2019-04-10T20:16:00.793Z,95920.73
2019-04-10T20:18:28.902Z,95925.03
2019-04-10T20:20:57.065Z,95923.84
2019-04-10T20:23:24.683Z,95924.05
2019-04-10T20:25:52.635Z,95931.31
2019-04-10T20:28:20.625Z,95927.50
2019-04-10T20:30:49.019Z,95928.20
2019-04-10T20:33:18.724Z,95925.86
2019-04-10T20:35:46.772Z,95929.64
2019-04-10T20:38:15.614Z,95937.31
2019-04-10T20:40:44.342Z,95935.29
2019-04-10T20:43:13.009Z,95937.92
2019-04-10T20:45:40.685Z,95939.36
2019-04-10T20:48:09.237Z,95940.39
2019-04-10T20:50:36.745Z,95945.97
2019-04-10T20:53:04.555Z,95947.41
2019-04-10T20:55:33.529Z,95951.25
2019-04-10T20:58:03.538Z,95950.62
2019-04-10T21:00:41.244Z,95949.36
2019-04-10T21:03:09.339Z,95955.80
2019-04-10T21:05:37.135Z,95949.16
2019-04-10T21:08:05.551Z,95944.27
2019-04-10T21:10:33.329Z,95950.72
2019-04-10T21:13:01.142Z,95948.09
2019-04-10T21:15:29.990Z,95950.30
2019-04-10T21:17:57.451Z,95947.19
2019-04-10T21:20:27.284Z,95957.37
2019-04-10T21:22:55.606Z,95956.38
2019-04-10T21:25:23.279Z,95958.03
2019-04-10T21:27:53.285Z,95964.27
2019-04-10T21:30:56.652Z,95966.74
2019-04-10T21:33:46.995Z,95965.91
2019-04-10T21:36:16.401Z,95968.26
2019-04-10T21:38:45.197Z,95966.90
2019-04-10T21:41:15.625Z,95962.91
2019-04-10T21:43:43.847Z,95970.09
2019-04-10T21:46:12.298Z,95967.47
2019-04-10T21:48:40.751Z,95967.39
2019-04-10T21:51:10.871Z,95964.27
2019-04-10T21:53:38.945Z,95961.48
2019-04-10T21:56:08.459Z,95967.10
2019-04-10T21:58:36.694Z,95964.94
2019-04-10T22:01:07.510Z,95972.48
2019-04-10T22:03:35.757Z,95968.30
2019-04-10T22:06:23.942Z,95967.09
2019-04-10T22:09:17.140Z,95970.88
2019-04-10T22:11:46.064Z,95967.02
2019-04-10T22:14:15.056Z,95966.47
2019-04-10T22:16:44.264Z,95965.31
2019-04-10T22:19:12.511Z,95966.58
2019-04-10T22:21:41.962Z,95965.89
2019-04-10T22:24:11.569Z,95975.64
2019-04-10T22:26:40.321Z,95968.66
2019-04-10T22:29:08.035Z,95973.66
2019-04-10T22:31:37.697Z,95975.86
2019-04-10T22:34:05.607Z,95981.55
2019-04-10T22:36:33.748Z,95980.78
2019-04-10T22:39:03.417Z,95981.77
2019-04-10T22:41:33.619Z,95985.00
2019-04-10T22:44:01.387Z,95986.31
2019-04-10T22:46:29.951Z,95982.05
2019-04-10T22:48:57.787Z,95983.91
2019-04-10T22:51:25.250Z,95984.11
2019-04-10T22:53:55.635Z,95989.48
2019-04-10T22:56:23.260Z,95972.57
2019-04-10T22:58:53.199Z,95973.00
2019-04-10T23:01:23.437Z,95978.82
2019-04-10T23:03:52.829Z,95971.44
2019-04-10T23:06:21.496Z,95967.02
2019-04-10T23:08:49.630Z,95975.05
2019-04-10T23:11:30.466Z,95971.27
2019-04-10T23:13:48.043Z,95967.94
2019-04-10T23:16:17.155Z,95972.42
2019-04-10T23:18:47.688Z,95966.34
2019-04-10T23:21:16.473Z,95965.41
2019-04-10T23:23:45.294Z,95965.52
2019-04-10T23:26:14.883Z,95973.53
2019-04-10T23:28:44.008Z,95972.16
2019-04-10T23:31:13.183Z,95971.72
2019-04-10T23:33:41.959Z,95976.27
2019-04-10T23:36:09.745Z,95971.22
2019-04-10T23:38:37.661Z,95977.59
2019-04-10T23:41:05.371Z,95972.88
2019-04-10T23:43:34.159Z,95978.61
2019-04-10T23:46:02.297Z,95978.77
2019-04-10T23:48:30.890Z,95982.80
2019-04-10T23:50:58.724Z,95978.05
2019-04-10T23:53:26.676Z,95983.44
2019-04-10T23:55:54.556Z,95981.98
2019-04-10T23:58:22.274Z,95982.95
